Time;durP1;ratioP1;P1;durP2;ratioP2;P2;SDS_P1;SDS_P2;PMS_P1;PMS_P2;Temp;Humidity;BMP_temperature;BMP_pressure;BME280_temperature;BME280_humidity;BME280_pressure;Samples;Min_cycle;Max_cycle;Signal;HPM_P1;HPM_P2
2021/01/24 00:01:33;;;;;;;29.27;16.50;;;6.20;91.80;;;;;;4918363;29;20032;-74
2021/01/24 00:03:59;;;;;;;27.27;16.08;;;6.20;91.70;;;;;;4918122;29;20028;-75
2021/01/24 00:06:25;;;;;;;26.02;15.82;;;6.20;91.70;;;;;;4917340;29;20058;-75
2021/01/24 00:08:51;;;;;;;27.73;16.50;;;6.20;91.60;;;;;;4918849;29;20036;-75
2021/01/24 00:11:16;;;;;;;27.85;16.40;;;6.20;91.80;;;;;;4918518;29;20090;-74
2021/01/24 00:13:42;;;;;;;29.70;16.13;;;6.20;91.50;;;;;;4917305;29;20060;-74
2021/01/24 00:16:09;;;;;;;28.08;15.80;;;6.20;91.40;;;;;;4918453;29;20044;-75
2021/01/24 00:18:35;;;;;;;25.58;15.52;;;6.20;91.40;;;;;;4918515;29;20095;-74
2021/01/24 00:21:01;;;;;;;25.42;14.70;;;6.20;91.30;;;;;;4917112;29;20491;-76
2021/01/24 00:23:27;;;;;;;27.45;15.30;;;6.10;91.30;;;;;;4917316;29;20123;-74
2021/01/24 00:25:53;;;;;;;27.17;16.20;;;6.10;91.30;;;;;;4916889;29;20036;-75
2021/01/24 00:28:21;;;;;;;26.77;16.63;;;6.10;91.30;;;;;;4917177;29;20159;-74
2021/01/24 00:30:48;;;;;;;31.20;16.92;;;6.10;91.20;;;;;;4917697;29;20126;-73
2021/01/24 00:33:14;;;;;;;28.63;17.00;;;6.10;91.20;;;;;;4916631;29;20111;-73
2021/01/24 00:35:40;;;;;;;26.30;15.40;;;6.10;91.20;;;;;;4916809;29;20071;-74
2021/01/24 00:38:06;;;;;;;27.13;16.45;;;6.10;91.10;;;;;;4916800;29;20050;-74
2021/01/24 00:40:32;;;;;;;30.10;16.02;;;6.10;91.10;;;;;;4917787;29;20118;-74
2021/01/24 00:42:59;;;;;;;30.48;17.15;;;6.10;91.10;;;;;;4917592;29;20052;-74
2021/01/24 00:45:25;;;;;;;27.30;16.00;;;6.10;91.10;;;;;;4916397;29;20099;-75
2021/01/24 00:47:51;;;;;;;26.23;15.93;;;6.10;91.10;;;;;;4916673;29;20491;-75
2021/01/24 00:50:17;;;;;;;27.23;15.63;;;6.10;91.10;;;;;;4916610;29;20127;-74
2021/01/24 00:52:43;;;;;;;28.52;15.35;;;6.10;91.00;;;;;;4917795;29;20078;-73
2021/01/24 00:55:09;;;;;;;28.30;15.95;;;6.10;91.00;;;;;;4916383;29;20531;-73
2021/01/24 00:57:35;;;;;;;27.67;16.40;;;6.10;90.90;;;;;;4916098;29;20047;-72
2021/01/24 01:00:03;;;;;;;27.88;16.30;;;6.10;90.90;;;;;;4900529;29;20122;-73
2021/01/24 01:02:29;;;;;;;27.13;16.27;;;6.10;90.90;;;;;;4900440;29;20092;-75
2021/01/24 01:04:55;;;;;;;29.45;17.08;;;6.10;90.90;;;;;;4915952;29;20606;-75
2021/01/24 01:07:20;;;;;;;30.50;16.35;;;6.10;90.90;;;;;;4916067;29;20503;-75
2021/01/24 01:09:46;;;;;;;29.63;16.35;;;6.10;90.90;;;;;;4917323;29;20138;-72
2021/01/24 01:12:14;;;;;;;30.83;16.80;;;6.10;90.90;;;;;;4915848;29;20088;-73
2021/01/24 01:14:40;;;;;;;31.17;17.35;;;6.10;90.90;;;;;;4917138;29;20059;-73
2021/01/24 01:17:06;;;;;;;32.13;18.40;;;6.00;90.90;;;;;;4916980;29;20044;-73
2021/01/24 01:19:31;;;;;;;32.78;17.25;;;6.00;90.90;;;;;;4900104;29;20099;-72
2021/01/24 01:21:57;;;;;;;33.22;17.88;;;6.10;90.90;;;;;;4917308;29;20055;-72
2021/01/24 01:24:23;;;;;;;33.92;19.33;;;6.10;90.90;;;;;;4915417;29;20047;-73
2021/01/24 01:26:49;;;;;;;33.83;19.20;;;6.10;90.90;;;;;;4916634;29;20658;-75
2021/01/24 01:29:15;;;;;;;38.03;19.45;;;6.00;90.80;;;;;;4916758;29;20032;-74
2021/01/24 01:31:41;;;;;;;32.13;18.35;;;6.10;90.80;;;;;;4916717;29;20454;-74
2021/01/24 01:34:07;;;;;;;37.53;20.00;;;6.00;90.80;;;;;;4916699;29;20039;-74
2021/01/24 01:36:33;;;;;;;39.22;19.98;;;6.00;90.80;;;;;;4916886;29;20149;-75
2021/01/24 01:39:02;;;;;;;37.88;19.38;;;6.00;90.80;;;;;;4915612;29;20058;-74
2021/01/24 01:41:33;;;;;;;41.78;21.70;;;6.10;90.80;;;;;;4916634;29;20095;-74
2021/01/24 01:43:59;;;;;;;38.42;20.23;;;6.00;90.80;;;;;;4899322;29;20499;-74
2021/01/24 01:46:28;;;;;;;37.45;19.77;;;6.00;90.80;;;;;;4916449;29;20036;-74
2021/01/24 01:48:55;;;;;;;38.70;20.35;;;6.00;90.80;;;;;;4916467;29;20043;-74
2021/01/24 01:51:21;;;;;;;39.25;20.38;;;6.00;90.80;;;;;;4915715;29;20032;-72
2021/01/24 01:53:48;;;;;;;38.17;19.23;;;6.00;90.80;;;;;;4915318;29;20071;-73
2021/01/24 01:56:15;;;;;;;37.70;19.17;;;6.00;90.70;;;;;;4916717;29;20051;-74
2021/01/24 01:58:41;;;;;;;40.80;20.30;;;6.00;90.70;;;;;;4916571;29;20036;-74
2021/01/24 02:01:31;;;;;;;32.45;17.67;;;6.00;90.70;;;;;;4915748;29;20067;-74
2021/01/24 02:04:19;;;;;;;34.45;18.45;;;6.00;90.70;;;;;;4886649;29;20052;-74
2021/01/24 02:06:52;;;;;;;33.53;19.00;;;6.00;90.70;;;;;;4899505;29;20051;-74
2021/01/24 02:09:34;;;;;;;35.70;17.83;;;6.00;90.70;;;;;;4916763;29;20078;-73
2021/01/24 02:12:10;;;;;;;32.65;17.15;;;6.00;90.70;;;;;;4916363;29;20036;-73
2021/01/24 02:14:44;;;;;;;32.80;16.17;;;6.00;90.70;;;;;;4916268;29;20047;-72
2021/01/24 02:17:17;;;;;;;32.08;16.83;;;6.00;90.70;;;;;;4916267;29;20533;-73
2021/01/24 02:20:04;;;;;;;33.45;17.13;;;6.00;90.70;;;;;;4914990;29;20036;-73
2021/01/24 02:22:34;;;;;;;29.30;15.75;;;6.00;90.70;;;;;;4899599;29;20044;-74
2021/01/24 02:25:12;;;;;;;31.38;16.05;;;6.00;90.70;;;;;;4916636;29;20032;-73
2021/01/24 02:27:48;;;;;;;29.02;15.57;;;6.00;90.70;;;;;;4899544;29;20055;-74
2021/01/24 02:30:22;;;;;;;28.08;15.65;;;6.00;90.70;;;;;;4916217;29;20088;-75
2021/01/24 02:32:54;;;;;;;29.17;16.60;;;6.00;90.70;;;;;;4916527;29;20032;-73
2021/01/24 02:35:25;;;;;;;28.73;14.80;;;6.00;90.60;;;;;;4915805;29;20087;-74
2021/01/24 02:37:51;;;;;;;33.30;16.70;;;6.00;90.60;;;;;;4916767;29;20084;-73
2021/01/24 02:40:18;;;;;;;28.58;15.23;;;6.00;90.60;;;;;;4915017;29;20044;-75
2021/01/24 02:42:45;;;;;;;27.80;15.02;;;6.00;90.60;;;;;;4914754;29;20060;-74
2021/01/24 02:45:12;;;;;;;25.73;15.02;;;5.90;90.60;;;;;;4916727;29;20048;-75
2021/01/24 02:47:39;;;;;;;26.55;14.40;;;6.00;90.60;;;;;;4905286;29;20040;-75
2021/01/24 02:50:07;;;;;;;28.02;16.27;;;5.90;90.60;;;;;;4918701;29;20063;-73
2021/01/24 02:52:33;;;;;;;27.33;14.73;;;6.00;90.60;;;;;;4918449;29;20039;-73
2021/01/24 02:55:00;;;;;;;24.77;13.80;;;5.90;90.50;;;;;;4919851;29;20044;-73
2021/01/24 02:57:26;;;;;;;24.45;14.02;;;5.90;90.50;;;;;;4919620;29;20036;-74
2021/01/24 02:59:52;;;;;;;22.52;13.35;;;5.90;90.50;;;;;;4919448;29;20039;-73
2021/01/24 03:02:18;;;;;;;23.25;13.60;;;6.00;90.50;;;;;;4919481;29;20514;-73
2021/01/24 03:04:44;;;;;;;25.00;14.68;;;5.90;90.50;;;;;;4919453;29;20032;-74
2021/01/24 03:07:10;;;;;;;24.20;13.63;;;5.90;90.40;;;;;;4919715;29;20047;-77
2021/01/24 03:09:35;;;;;;;24.88;14.02;;;6.00;90.40;;;;;;4902749;29;20044;-74
2021/01/24 03:12:04;;;;;;;23.27;13.63;;;6.00;90.40;;;;;;4919583;29;20052;-74
2021/01/24 03:14:32;;;;;;;23.33;13.60;;;6.00;90.40;;;;;;4919229;29;20071;-77
2021/01/24 03:17:02;;;;;;;21.88;13.13;;;6.00;90.30;;;;;;4919239;29;20137;-75
2021/01/24 03:19:31;;;;;;;21.85;12.55;;;5.90;90.30;;;;;;4919281;29;20456;-75
2021/01/24 03:21:58;;;;;;;24.60;14.68;;;5.90;90.30;;;;;;4919337;29;20060;-75
2021/01/24 03:24:25;;;;;;;22.02;13.20;;;6.00;90.40;;;;;;4917936;29;20040;-74
2021/01/24 03:26:52;;;;;;;20.73;12.40;;;5.90;90.30;;;;;;4902217;29;20044;-74
2021/01/24 03:29:19;;;;;;;21.38;12.30;;;6.00;90.30;;;;;;4902335;29;20072;-74
2021/01/24 03:31:46;;;;;;;20.70;12.27;;;6.00;90.30;;;;;;4917726;29;20495;-74
2021/01/24 03:34:21;;;;;;;21.02;12.48;;;6.00;90.30;;;;;;4917801;29;20036;-75
2021/01/24 03:36:48;;;;;;;19.25;11.60;;;6.00;90.30;;;;;;4901851;29;20039;-75
2021/01/24 03:39:15;;;;;;;21.60;12.18;;;5.90;90.30;;;;;;4917737;29;20074;-75
2021/01/24 03:41:41;;;;;;;18.98;11.85;;;5.90;90.20;;;;;;4918963;29;20036;-75
2021/01/24 03:44:08;;;;;;;18.40;12.02;;;6.00;90.20;;;;;;4919112;29;20047;-74
2021/01/24 03:46:34;;;;;;;19.08;11.23;;;6.00;90.20;;;;;;4918715;29;20040;-73
2021/01/24 03:49:01;;;;;;;22.45;12.23;;;5.90;90.20;;;;;;4901933;29;20040;-73
2021/01/24 03:51:27;;;;;;;20.42;11.98;;;5.90;90.20;;;;;;4917527;29;20127;-74
2021/01/24 03:53:54;;;;;;;18.60;11.13;;;5.90;90.20;;;;;;4917330;29;20570;-74
2021/01/24 03:56:20;;;;;;;19.38;11.35;;;5.90;90.20;;;;;;4918246;29;20040;-74
2021/01/24 03:58:46;;;;;;;19.02;11.32;;;5.90;90.20;;;;;;4917734;29;20052;-75
2021/01/24 04:01:12;;;;;;;18.45;10.98;;;5.90;90.20;;;;;;4917441;29;20562;-74
2021/01/24 04:03:38;;;;;;;19.02;11.90;;;5.90;90.20;;;;;;4918639;29;20381;-73
2021/01/24 04:06:04;;;;;;;18.83;10.57;;;6.00;90.20;;;;;;4916916;29;20067;-74
2021/01/24 04:08:30;;;;;;;20.50;11.32;;;5.90;90.20;;;;;;4917134;29;20130;-75
2021/01/24 04:10:56;;;;;;;17.90;11.63;;;5.90;90.20;;;;;;4918635;29;20512;-73
2021/01/24 04:13:24;;;;;;;17.15;10.73;;;5.90;90.20;;;;;;4901480;29;20036;-73
2021/01/24 04:15:50;;;;;;;17.90;11.18;;;5.90;90.20;;;;;;4918103;29;20043;-73
2021/01/24 04:18:16;;;;;;;17.42;10.93;;;5.90;90.20;;;;;;4918126;29;20032;-73
2021/01/24 04:20:42;;;;;;;19.00;11.45;;;5.90;90.20;;;;;;4918590;29;20047;-73
2021/01/24 04:23:08;;;;;;;19.75;11.35;;;5.90;90.10;;;;;;4916369;29;20384;-74
2021/01/24 04:25:34;;;;;;;18.20;11.00;;;5.90;90.10;;;;;;4917753;29;20035;-74
2021/01/24 04:28:00;;;;;;;16.42;10.60;;;5.90;90.10;;;;;;4917853;29;20036;-74
2021/01/24 04:30:26;;;;;;;17.60;10.77;;;5.90;90.10;;;;;;4917779;29;20491;-74
2021/01/24 04:32:52;;;;;;;14.60;9.45;;;5.90;90.10;;;;;;4917679;29;20126;-73
2021/01/24 04:35:18;;;;;;;18.27;11.93;;;5.90;90.10;;;;;;4917714;29;20036;-73
2021/01/24 04:37:44;;;;;;;17.15;10.30;;;5.90;90.10;;;;;;4917617;29;20135;-74
2021/01/24 04:40:11;;;;;;;17.65;10.38;;;5.90;90.10;;;;;;4916534;29;20475;-73
2021/01/24 04:42:37;;;;;;;18.20;10.95;;;5.90;90.10;;;;;;4917751;29;20075;-73
2021/01/24 04:45:08;;;;;;;16.67;10.80;;;5.90;90.10;;;;;;4916556;29;20048;-74
2021/01/24 04:47:37;;;;;;;18.60;11.38;;;5.90;90.10;;;;;;4900797;29;20036;-74
2021/01/24 04:50:04;;;;;;;19.05;11.45;;;5.90;90.00;;;;;;4917742;29;20036;-73
2021/01/24 04:52:31;;;;;;;18.08;11.05;;;5.90;90.00;;;;;;4916080;29;20082;-74
2021/01/24 04:54:57;;;;;;;18.58;11.25;;;5.90;90.00;;;;;;4916097;29;20083;-75
2021/01/24 04:57:24;;;;;;;17.77;10.35;;;5.90;90.10;;;;;;4917223;29;20492;-75
2021/01/24 04:59:50;;;;;;;17.20;10.82;;;5.90;90.00;;;;;;4916251;29;20130;-75
2021/01/24 05:02:16;;;;;;;17.83;9.98;;;5.90;90.00;;;;;;4916403;29;20570;-74
2021/01/24 05:04:43;;;;;;;16.67;10.55;;;5.90;90.00;;;;;;4917467;29;20047;-72
2021/01/24 05:07:09;;;;;;;16.42;9.98;;;5.90;90.00;;;;;;4917058;29;20495;-73
2021/01/24 05:09:35;;;;;;;16.33;9.23;;;5.90;90.00;;;;;;4917120;29;20040;-74
2021/01/24 05:12:00;;;;;;;14.15;9.02;;;5.90;90.00;;;;;;4916213;29;20067;-74
2021/01/24 05:14:26;;;;;;;15.13;10.18;;;5.90;90.00;;;;;;4916055;29;20090;-72
2021/01/24 05:16:55;;;;;;;17.30;9.88;;;5.90;90.00;;;;;;4915875;29;20044;-74
2021/01/24 05:19:21;;;;;;;15.60;9.70;;;5.90;90.00;;;;;;4915941;29;20411;-73
2021/01/24 05:21:48;;;;;;;15.73;9.43;;;5.90;89.90;;;;;;4915634;29;20032;-73
2021/01/24 05:24:18;;;;;;;15.40;9.88;;;5.90;89.90;;;;;;4915787;29;20059;-74
2021/01/24 05:26:46;;;;;;;14.15;9.43;;;5.90;89.90;;;;;;4915935;29;20127;-73
2021/01/24 05:29:19;;;;;;;14.27;8.85;;;5.90;89.90;;;;;;4915668;29;20032;-73
2021/01/24 05:31:46;;;;;;;14.27;9.30;;;5.90;89.90;;;;;;4917136;29;20514;-74
2021/01/24 05:34:15;;;;;;;15.70;8.88;;;5.90;89.90;;;;;;4915740;29;20123;-76
2021/01/24 05:36:50;;;;;;;14.48;8.88;;;5.90;89.80;;;;;;4915433;29;20039;-74
2021/01/24 05:39:16;;;;;;;14.35;9.05;;;5.90;89.90;;;;;;4916823;29;20028;-74
2021/01/24 05:41:47;;;;;;;13.50;8.98;;;5.90;89.90;;;;;;4916461;29;20130;-76
2021/01/24 05:44:14;;;;;;;14.35;9.18;;;5.90;89.90;;;;;;4915345;29;20494;-74
2021/01/24 05:46:41;;;;;;;13.23;8.68;;;5.90;89.80;;;;;;4916862;29;20128;-75
2021/01/24 05:49:10;;;;;;;11.60;8.30;;;5.90;89.80;;;;;;4915903;29;20044;-74
2021/01/24 05:51:36;;;;;;;15.45;9.50;;;5.90;89.80;;;;;;4915480;29;20063;-75
2021/01/24 05:54:03;;;;;;;12.88;8.73;;;5.90;89.90;;;;;;4915687;29;20054;-74
2021/01/24 05:56:29;;;;;;;12.15;8.10;;;5.90;89.80;;;;;;4915570;29;20063;-78
2021/01/24 05:59:00;;;;;;;13.95;8.98;;;5.90;89.80;;;;;;4916511;29;20389;-73
2021/01/24 06:01:29;;;;;;;13.25;9.32;;;5.90;89.80;;;;;;4916475;29;20507;-74
2021/01/24 06:03:57;;;;;;;13.50;9.07;;;5.90;89.80;;;;;;4915413;29;20407;-74
2021/01/24 06:06:24;;;;;;;16.73;9.30;;;5.90;89.90;;;;;;4916275;29;20044;-75
2021/01/24 06:08:50;;;;;;;13.45;8.68;;;5.90;89.80;;;;;;4915246;29;20495;-75
2021/01/24 06:11:17;;;;;;;16.27;9.82;;;5.90;89.90;;;;;;4915033;29;20047;-74
2021/01/24 06:13:48;;;;;;;13.50;9.05;;;5.90;90.10;;;;;;4914917;29;20419;-72
2021/01/24 06:16:33;;;;;;;12.93;8.80;;;5.90;89.80;;;;;;4914990;29;20032;-74
2021/01/24 06:19:03;;;;;;;13.40;9.15;;;5.90;89.80;;;;;;4917184;29;20040;-74
2021/01/24 06:21:50;;;;;;;14.20;8.65;;;5.90;89.80;;;;;;4901908;29;20067;-75
2021/01/24 06:24:29;;;;;;;14.00;9.35;;;5.90;89.70;;;;;;4920062;29;20071;-74
2021/01/24 06:27:01;;;;;;;15.45;9.52;;;5.90;89.60;;;;;;4918766;29;20080;-74
2021/01/24 06:29:29;;;;;;;15.00;8.68;;;5.90;89.70;;;;;;4918914;29;20100;-75
2021/01/24 06:31:56;;;;;;;13.85;9.02;;;5.90;89.70;;;;;;4919822;29;20036;-75
2021/01/24 06:34:40;;;;;;;14.20;8.48;;;5.90;89.70;;;;;;4902983;29;20035;-74
2021/01/24 06:37:06;;;;;;;12.77;8.50;;;5.90;89.80;;;;;;4918322;29;20040;-74
2021/01/24 06:40:02;;;;;;;16.42;9.38;;;5.90;89.70;;;;;;4918755;29;20060;-75
2021/01/24 06:42:43;;;;;;;13.50;9.15;;;5.90;89.70;;;;;;4906022;29;20044;-77
2021/01/24 06:45:27;;;;;;;14.02;9.70;;;5.90;89.70;;;;;;4919561;29;20567;-74
2021/01/24 06:47:58;;;;;;;13.10;9.05;;;5.90;89.70;;;;;;4919836;29;20040;-74
2021/01/24 06:50:47;;;;;;;13.55;9.10;;;5.90;89.70;;;;;;4918351;29;20515;-75
2021/01/24 06:53:26;;;;;;;12.27;8.25;;;5.90;89.70;;;;;;4902881;29;20032;-75
2021/01/24 06:56:06;;;;;;;13.20;8.85;;;5.90;89.70;;;;;;4919423;29;20044;-72
2021/01/24 06:58:50;;;;;;;13.60;9.00;;;5.90;89.80;;;;;;4902803;29;20507;-75
2021/01/24 07:01:30;;;;;;;13.80;9.55;;;5.90;89.70;;;;;;4919407;29;20205;-75
2021/01/24 07:04:19;;;;;;;13.75;9.27;;;5.90;89.70;;;;;;4902815;29;20099;-74
2021/01/24 07:06:52;;;;;;;14.18;9.00;;;5.90;89.70;;;;;;4919503;29;20063;-73
2021/01/24 07:09:24;;;;;;;14.35;9.18;;;5.90;89.60;;;;;;4918010;29;20088;-73
2021/01/24 07:12:02;;;;;;;13.70;8.70;;;5.90;89.60;;;;;;4918339;29;20036;-74
2021/01/24 07:14:36;;;;;;;15.73;9.80;;;6.00;89.60;;;;;;4919331;29;20051;-76
2021/01/24 07:17:11;;;;;;;14.25;9.32;;;5.90;89.60;;;;;;4919310;29;20047;-74
2021/01/24 07:19:53;;;;;;;15.65;10.77;;;5.90;89.60;;;;;;4918872;29;20066;-73
2021/01/24 07:22:24;;;;;;;14.30;10.10;;;5.90;89.60;;;;;;4918930;29;20044;-72
2021/01/24 07:24:52;;;;;;;15.40;10.20;;;5.90;89.60;;;;;;4917505;29;20044;-75
2021/01/24 07:27:21;;;;;;;16.15;10.35;;;6.00;89.60;;;;;;4917753;29;20048;-77
2021/01/24 07:29:47;;;;;;;14.65;9.13;;;6.00;89.60;;;;;;4902120;29;20151;-76
2021/01/24 07:32:18;;;;;;;15.57;9.98;;;5.90;89.60;;;;;;4917447;29;20032;-76
2021/01/24 07:34:46;;;;;;;15.75;10.48;;;6.00;89.60;;;;;;4917538;29;20036;-74
2021/01/24 07:37:15;;;;;;;14.82;9.93;;;6.00;89.70;;;;;;4918925;29;20068;-79
2021/01/24 07:39:43;;;;;;;16.10;10.00;;;5.90;89.50;;;;;;4901457;29;20048;-76
2021/01/24 07:42:09;;;;;;;15.27;9.70;;;5.90;89.60;;;;;;4917458;29;20040;-80
2021/01/24 07:44:38;;;;;;;18.10;10.25;;;6.00;89.60;;;;;;4917778;29;20051;-76
2021/01/24 07:47:05;;;;;;;18.42;11.48;;;6.00;89.60;;;;;;4918544;29;20046;-79
2021/01/24 07:49:31;;;;;;;17.17;10.18;;;6.00;89.60;;;;;;4918461;29;20131;-77
2021/01/24 07:51:57;;;;;;;17.35;10.00;;;6.00;89.60;;;;;;4917233;29;20036;-76
2021/01/24 07:54:24;;;;;;;16.40;10.20;;;6.00;89.60;;;;;;4918242;29;20419;-77
2021/01/24 07:56:50;;;;;;;16.63;10.25;;;6.00;89.50;;;;;;4918241;29;20040;-76
2021/01/24 07:59:17;;;;;;;20.33;11.93;;;6.00;89.50;;;;;;4917452;29;20044;-75
2021/01/24 08:01:44;;;;;;;17.13;9.65;;;6.00;89.50;;;;;;4917241;29;20032;-76
2021/01/24 08:04:11;;;;;;;17.58;10.20;;;6.00;89.50;;;;;;4917004;29;20084;-74
2021/01/24 08:06:38;;;;;;;16.50;10.02;;;6.10;89.90;;;;;;4917507;29;20182;-73
2021/01/24 08:09:05;;;;;;;17.75;10.05;;;6.10;90.20;;;;;;4917476;29;20130;-74
2021/01/24 08:11:33;;;;;;;19.10;10.57;;;6.10;90.30;;;;;;4919072;29;20123;-77
2021/01/24 08:13:59;;;;;;;17.92;10.48;;;6.10;90.50;;;;;;4916842;29;20084;-77
2021/01/24 08:16:38;;;;;;;17.73;9.73;;;6.20;90.60;;;;;;4918208;29;20170;-77
2021/01/24 08:19:06;;;;;;;16.98;10.23;;;6.20;90.70;;;;;;4916665;29;20044;-75
2021/01/24 08:21:34;;;;;;;16.60;10.35;;;6.30;90.80;;;;;;4916484;29;20055;-77
2021/01/24 08:24:01;;;;;;;18.55;10.52;;;6.20;90.80;;;;;;4916523;29;20122;-77
2021/01/24 08:26:28;;;;;;;17.70;10.07;;;6.30;90.80;;;;;;4916456;29;20051;-78
2021/01/24 08:28:58;;;;;;;19.45;10.50;;;6.30;90.70;;;;;;4916384;29;20044;-77
2021/01/24 08:31:24;;;;;;;19.60;10.90;;;6.30;90.70;;;;;;4900627;29;20507;-77
2021/01/24 08:33:54;;;;;;;19.98;11.15;;;6.30;90.70;;;;;;4917678;29;20043;-77
2021/01/24 08:36:26;;;;;;;20.60;11.15;;;6.30;90.70;;;;;;4916278;29;20076;-79
2021/01/24 08:38:59;;;;;;;21.85;12.20;;;6.30;90.60;;;;;;4901549;29;20127;-75
2021/01/24 08:41:34;;;;;;;19.42;11.38;;;6.40;90.70;;;;;;4916333;29;20039;-76
2021/01/24 08:44:12;;;;;;;20.05;11.50;;;6.40;90.70;;;;;;4915907;29;20071;-77
2021/01/24 08:46:43;;;;;;;19.40;10.82;;;6.40;90.70;;;;;;4916251;29;20047;-74
2021/01/24 08:49:10;;;;;;;19.13;10.63;;;6.40;90.60;;;;;;4916044;29;20474;-75
2021/01/24 08:51:44;;;;;;;22.15;11.57;;;6.40;90.60;;;;;;4900471;29;20043;-76
2021/01/24 08:54:19;;;;;;;18.67;10.70;;;6.40;90.60;;;;;;4916181;29;20047;-79
2021/01/24 08:56:45;;;;;;;23.85;12.57;;;6.50;90.60;;;;;;4916039;29;20059;-78
2021/01/24 08:59:22;;;;;;;21.20;11.23;;;6.50;90.60;;;;;;4915724;29;20032;-75
2021/01/24 09:01:53;;;;;;;23.15;13.05;;;6.50;90.70;;;;;;4915941;29;20123;-75
2021/01/24 09:04:21;;;;;;;23.90;12.07;;;6.50;90.60;;;;;;4900507;29;20516;-75
2021/01/24 09:07:09;;;;;;;23.80;13.45;;;6.50;90.60;;;;;;4897730;29;20055;-74
2021/01/24 09:09:37;;;;;;;23.40;12.82;;;6.50;90.70;;;;;;4915523;29;20043;-78
2021/01/24 09:12:04;;;;;;;22.45;12.35;;;6.50;90.60;;;;;;4915970;29;20119;-75
2021/01/24 09:14:30;;;;;;;23.65;13.02;;;6.60;90.60;;;;;;4915731;29;20048;-78
2021/01/24 09:17:11;;;;;;;24.70;13.43;;;6.60;90.80;;;;;;4900038;29;20036;-75
2021/01/24 09:19:42;;;;;;;26.83;13.93;;;6.60;90.70;;;;;;4899854;29;20111;-75
2021/01/24 09:22:10;;;;;;;21.90;12.50;;;6.50;90.60;;;;;;4915193;29;20043;-75
2021/01/24 09:24:38;;;;;;;26.75;14.63;;;6.50;90.40;;;;;;4915592;29;20040;-75
2021/01/24 09:27:06;;;;;;;24.85;13.48;;;6.50;90.40;;;;;;4900309;29;20051;-79
2021/01/24 09:29:33;;;;;;;26.20;14.50;;;6.50;90.20;;;;;;4900112;29;20127;-78
2021/01/24 09:31:59;;;;;;;27.17;14.70;;;6.50;90.20;;;;;;4915503;29;20083;-79
2021/01/24 09:34:25;;;;;;;27.90;14.55;;;6.50;90.10;;;;;;4915522;29;20071;-78
2021/01/24 09:36:51;;;;;;;27.25;16.30;;;6.50;90.10;;;;;;4916697;29;20095;-77
2021/01/24 09:39:17;;;;;;;27.15;15.48;;;6.40;90.00;;;;;;4915457;29;20043;-77
2021/01/24 09:41:43;;;;;;;32.88;15.80;;;6.40;90.00;;;;;;4915555;29;20093;-78
2021/01/24 09:44:09;;;;;;;29.23;16.60;;;6.50;90.00;;;;;;4915048;29;20579;-78
2021/01/24 09:46:35;;;;;;;29.50;15.25;;;6.50;90.00;;;;;;4914246;29;20526;-79
2021/01/24 09:49:02;;;;;;;28.75;16.58;;;6.40;90.00;;;;;;4900165;29;20032;-77
2021/01/24 09:51:28;;;;;;;25.73;15.68;;;6.50;90.00;;;;;;4899971;29;20050;-76
2021/01/24 09:53:58;;;;;;;26.98;15.68;;;6.40;89.90;;;;;;4916787;29;20517;-75
2021/01/24 09:56:25;;;;;;;30.58;17.33;;;6.40;90.10;;;;;;4898962;29;20475;-76
2021/01/24 09:58:52;;;;;;;29.77;15.98;;;6.40;89.70;;;;;;4915052;29;20036;-76
2021/01/24 10:01:20;;;;;;;27.02;15.82;;;6.40;89.80;;;;;;4914913;29;20036;-76
2021/01/24 10:03:46;;;;;;;30.25;16.77;;;6.40;89.70;;;;;;4899567;29;20039;-77
2021/01/24 10:06:13;;;;;;;30.40;16.83;;;6.40;89.70;;;;;;4899212;29;20095;-80
2021/01/24 10:08:40;;;;;;;30.30;18.20;;;6.40;89.60;;;;;;4899604;29;20048;-77
2021/01/24 10:11:06;;;;;;;34.83;18.27;;;6.40;89.50;;;;;;4915272;29;20044;-77
2021/01/24 10:13:32;;;;;;;26.88;15.70;;;6.40;89.60;;;;;;4899105;29;20134;-76
2021/01/24 10:15:58;;;;;;;28.00;17.30;;;6.40;89.60;;;;;;4899425;29;20052;-77
2021/01/24 10:18:24;;;;;;;30.15;17.08;;;6.40;89.50;;;;;;4915017;29;20043;-76
2021/01/24 10:20:50;;;;;;;31.27;17.80;;;6.40;89.50;;;;;;4914968;29;20047;-76
2021/01/24 10:23:20;;;;;;;32.38;18.27;;;6.40;89.50;;;;;;4899255;29;20131;-75
2021/01/24 10:25:51;;;;;;;31.35;16.90;;;6.40;89.50;;;;;;4914831;29;20504;-76
2021/01/24 10:28:18;;;;;;;28.65;17.58;;;6.40;89.50;;;;;;4899233;29;20044;-77
2021/01/24 10:30:45;;;;;;;32.53;17.70;;;6.40;89.50;;;;;;4916090;29;20044;-77
2021/01/24 10:33:12;;;;;;;30.00;17.48;;;6.40;89.50;;;;;;4899304;29;20558;-75
2021/01/24 10:35:39;;;;;;;32.15;17.98;;;6.40;89.50;;;;;;4915100;29;20048;-74
2021/01/24 10:38:06;;;;;;;30.35;17.20;;;6.40;89.50;;;;;;4899180;29;20047;-74
2021/01/24 10:40:32;;;;;;;29.75;17.10;;;6.40;89.50;;;;;;4916208;29;20586;-74
2021/01/24 10:42:59;;;;;;;29.58;16.98;;;6.40;89.50;;;;;;4914735;29;20055;-76
2021/01/24 10:45:25;;;;;;;26.70;15.98;;;6.40;89.50;;;;;;4914728;29;20131;-74
2021/01/24 10:47:52;;;;;;;27.08;16.17;;;6.40;89.50;;;;;;4914792;29;20603;-74
2021/01/24 10:50:18;;;;;;;26.35;15.43;;;6.40;89.50;;;;;;4916220;29;20056;-74
2021/01/24 10:52:44;;;;;;;28.20;16.92;;;6.40;89.50;;;;;;4899489;29;20122;-74
2021/01/24 10:55:12;;;;;;;26.40;15.75;;;6.40;89.50;;;;;;4915383;29;20047;-77
2021/01/24 10:57:41;;;;;;;26.50;15.93;;;6.40;89.50;;;;;;4914703;29;20044;-79
2021/01/24 11:00:08;;;;;;;29.38;17.70;;;6.40;89.50;;;;;;4899453;29;20036;-76
2021/01/24 11:02:35;;;;;;;28.73;16.20;;;6.40;89.50;;;;;;4915163;29;20055;-77
2021/01/24 11:05:02;;;;;;;28.45;16.45;;;6.50;89.50;;;;;;4915271;29;20514;-76
2021/01/24 11:07:28;;;;;;;29.15;17.02;;;6.40;89.50;;;;;;4916998;29;20562;-77
2021/01/24 11:09:54;;;;;;;30.90;16.92;;;6.50;89.60;;;;;;4918113;29;20039;-75
2021/01/24 11:12:20;;;;;;;32.28;17.00;;;6.40;89.50;;;;;;4917993;29;20135;-75
2021/01/24 11:14:46;;;;;;;28.00;16.65;;;6.50;89.60;;;;;;4919009;29;20044;-75
2021/01/24 11:17:12;;;;;;;31.50;18.58;;;6.50;89.60;;;;;;4918285;29;20139;-76
2021/01/24 11:19:38;;;;;;;30.63;17.73;;;6.50;89.60;;;;;;4919237;29;20032;-74
2021/01/24 11:22:05;;;;;;;32.35;18.50;;;6.50;89.60;;;;;;4902621;29;20060;-74
2021/01/24 11:24:31;;;;;;;29.90;17.27;;;6.40;89.50;;;;;;4917634;29;20123;-79
2021/01/24 11:26:58;;;;;;;28.38;17.00;;;6.50;89.60;;;;;;4917692;29;20087;-75
2021/01/24 11:29:24;;;;;;;28.65;16.52;;;6.40;89.50;;;;;;4917692;29;20044;-76
2021/01/24 11:31:51;;;;;;;26.73;16.65;;;6.40;89.60;;;;;;4918530;29;20032;-77
2021/01/24 11:34:17;;;;;;;31.75;17.27;;;6.50;89.60;;;;;;4901900;29;20043;-75
2021/01/24 11:36:43;;;;;;;29.25;17.08;;;6.50;89.60;;;;;;4917374;29;20032;-75
2021/01/24 11:39:09;;;;;;;28.17;16.65;;;6.50;89.60;;;;;;4917860;29;20451;-75
2021/01/24 11:41:35;;;;;;;29.73;16.38;;;6.50;89.60;;;;;;4917385;29;20418;-75
2021/01/24 11:44:01;;;;;;;32.10;17.35;;;6.50;89.60;;;;;;4918430;29;20422;-78
2021/01/24 11:46:27;;;;;;;29.98;17.40;;;6.40;89.50;;;;;;4901617;29;20044;-75
2021/01/24 11:48:53;;;;;;;27.60;16.67;;;6.50;89.60;;;;;;4919646;29;20075;-80
2021/01/24 11:51:19;;;;;;;27.55;15.80;;;6.50;89.60;;;;;;4919815;29;20036;-85
2021/01/24 11:53:45;;;;;;;26.30;16.85;;;6.50;89.60;;;;;;4918539;29;20521;-82
2021/01/24 11:56:11;;;;;;;26.30;16.65;;;6.50;89.60;;;;;;4917465;29;20162;-79
2021/01/24 11:58:37;;;;;;;27.75;16.40;;;6.50;89.70;;;;;;4918392;29;20052;-76
2021/01/24 12:01:04;;;;;;;29.35;17.33;;;6.40;89.60;;;;;;4918556;29;20044;-84
2021/01/24 12:03:32;;;;;;;26.95;16.52;;;6.40;89.70;;;;;;4916877;29;20051;-78
2021/01/24 12:06:01;;;;;;;27.20;16.23;;;6.50;89.70;;;;;;4917099;29;20042;-78
2021/01/24 12:08:27;;;;;;;28.05;16.45;;;6.40;89.80;;;;;;4917278;29;20122;-75
2021/01/24 12:10:53;;;;;;;29.83;18.13;;;6.50;89.80;;;;;;4917907;29;20032;-78
2021/01/24 12:13:19;;;;;;;28.92;16.80;;;6.40;89.70;;;;;;4918951;29;20047;-74
2021/01/24 12:15:45;;;;;;;25.08;15.95;;;6.40;89.70;;;;;;4916574;29;20042;-84
2021/01/24 12:18:13;;;;;;;27.67;16.25;;;6.40;89.70;;;;;;4901530;29;20028;-82
2021/01/24 12:20:39;;;;;;;25.95;14.73;;;6.40;89.70;;;;;;4918592;29;20036;-77
2021/01/24 12:23:04;;;;;;;27.30;17.05;;;6.50;89.80;;;;;;4917843;29;20040;-79
2021/01/24 12:25:32;;;;;;;26.00;15.75;;;6.40;89.70;;;;;;4917717;29;20039;-77
2021/01/24 12:27:58;;;;;;;29.10;16.95;;;6.40;89.80;;;;;;4917886;29;20145;-79
2021/01/24 12:30:24;;;;;;;28.45;16.33;;;6.40;89.80;;;;;;4916723;29;20036;-80
2021/01/24 12:32:52;;;;;;;31.58;15.98;;;6.40;89.90;;;;;;4916981;29;20037;-80
2021/01/24 12:35:20;;;;;;;28.48;16.00;;;6.50;89.90;;;;;;4917387;29;20055;-81
2021/01/24 12:37:46;;;;;;;27.30;16.75;;;6.40;89.90;;;;;;4901869;29;20071;-81
2021/01/24 12:40:12;;;;;;;24.92;15.35;;;6.40;89.80;;;;;;4918216;29;20507;-80
2021/01/24 12:42:38;;;;;;;28.92;16.45;;;6.40;89.80;;;;;;4900737;29;20095;-78
2021/01/24 12:45:07;;;;;;;27.85;16.20;;;6.40;89.90;;;;;;4917117;29;20447;-81